createdAt,value
2023-04-11T00:00:01.050Z,1
2023-04-11T00:01:00.845Z,1
2023-04-11T00:02:01.585Z,1
2023-04-11T00:03:01.335Z,1
2023-04-11T00:04:01.291Z,1
2023-04-11T00:05:01.229Z,1
2023-04-11T00:06:04.083Z,1
2023-04-11T00:07:01.088Z,1
2023-04-11T00:08:01.917Z,1
2023-04-11T00:09:00.919Z,1
2023-04-11T00:10:01.122Z,1
2023-04-11T00:11:07.858Z,1
2023-04-11T00:12:01.430Z,1
2023-04-11T00:13:02.676Z,1
2023-04-11T00:14:01.172Z,1
2023-04-11T00:15:01.037Z,1
2023-04-11T00:16:10.764Z,1
2023-04-11T00:17:01.415Z,1
2023-04-11T00:18:01.105Z,1
2023-04-11T00:19:01.060Z,1
2023-04-11T00:20:01.143Z,1
2023-04-11T00:21:13.600Z,1
2023-04-11T00:22:01.746Z,1
2023-04-11T00:23:01.768Z,1
2023-04-11T00:24:01.804Z,1
2023-04-11T00:25:01.398Z,1
2023-04-11T00:26:16.538Z,1
2023-04-11T00:27:01.215Z,1
2023-04-11T00:28:01.116Z,1
2023-04-11T00:29:01.747Z,1
2023-04-11T00:30:01.423Z,1
2023-04-11T00:31:01.027Z,1
2023-04-11T00:32:01.055Z,1
2023-04-11T00:33:01.076Z,1
2023-04-11T00:34:01.078Z,1
2023-04-11T00:35:01.065Z,1
2023-04-11T00:36:01.964Z,1
2023-04-11T00:37:01.716Z,1
2023-04-11T00:38:01.095Z,1
2023-04-11T00:39:01.600Z,1
2023-04-11T00:40:01.127Z,1
2023-04-11T00:41:01.106Z,1
2023-04-11T00:42:01.106Z,1
2023-04-11T00:43:01.116Z,1
2023-04-11T00:44:01.031Z,1
2023-04-11T00:45:01.094Z,1
2023-04-11T00:46:05.456Z,1
2023-04-11T00:47:02.255Z,1
2023-04-11T00:48:01.121Z,1
2023-04-11T00:49:02.387Z,1
2023-04-11T00:50:02.126Z,1
2023-04-11T00:51:01.085Z,1
2023-04-11T00:52:01.067Z,1
2023-04-11T00:53:01.371Z,1
2023-04-11T00:54:00.669Z,1
2023-04-11T00:55:00.266Z,1
2023-04-11T00:55:59.840Z,1
2023-04-11T00:57:01.456Z,1
2023-04-11T00:58:00.687Z,1
2023-04-11T00:59:00.408Z,1
2023-04-11T01:00:00.136Z,1
2023-04-11T01:00:59.978Z,1
2023-04-11T01:01:59.856Z,1
2023-04-11T01:02:59.754Z,1
2023-04-11T01:03:59.518Z,1
2023-04-11T01:05:01.891Z,1
2023-04-11T01:06:02.161Z,1
2023-04-11T01:07:01.020Z,1
2023-04-11T01:08:01.368Z,1
2023-04-11T01:09:01.075Z,1
2023-04-11T01:10:01.082Z,1
2023-04-11T01:11:01.086Z,1
2023-04-11T01:12:01.021Z,1
2023-04-11T01:13:01.186Z,1
2023-04-11T01:14:01.508Z,1
2023-04-11T01:15:01.124Z,1
2023-04-11T01:16:01.121Z,1
2023-04-11T01:17:01.142Z,1
2023-04-11T01:18:01.224Z,1
2023-04-11T01:19:01.141Z,1
2023-04-11T01:20:01.097Z,1
2023-04-11T01:21:01.022Z,1
2023-04-11T01:22:01.369Z,1
2023-04-11T01:23:01.764Z,1
2023-04-11T01:24:01.072Z,1
2023-04-11T01:25:01.302Z,1
2023-04-11T01:26:01.495Z,1
2023-04-11T01:27:01.909Z,1
2023-04-11T01:28:01.124Z,1
2023-04-11T01:29:01.116Z,1
2023-04-11T01:30:01.128Z,1
2023-04-11T01:31:01.043Z,1
2023-04-11T01:32:01.505Z,1
2023-04-11T01:33:01.159Z,1
2023-04-11T01:34:01.144Z,1
2023-04-11T01:35:01.029Z,1
2023-04-11T01:36:01.076Z,1
2023-04-11T01:37:04.337Z,1
2023-04-11T01:38:01.968Z,1
2023-04-11T01:39:01.184Z,1
2023-04-11T01:40:01.499Z,1
2023-04-11T01:41:01.209Z,1
2023-04-11T01:42:01.103Z,1
2023-04-11T01:43:01.094Z,1
2023-04-11T01:44:01.200Z,1
2023-04-11T01:45:01.064Z,1
2023-04-11T01:46:01.034Z,1
2023-04-11T01:47:00.767Z,1
2023-04-11T01:48:00.846Z,1
2023-04-11T01:49:01.730Z,1
2023-04-11T01:50:01.153Z,1
2023-04-11T01:51:01.026Z,1
2023-04-11T01:52:03.534Z,1
2023-04-11T01:53:01.054Z,1
2023-04-11T01:54:01.051Z,1
2023-04-11T01:55:01.051Z,1
2023-04-11T01:56:01.211Z,1
2023-04-11T01:57:05.674Z,1
2023-04-11T01:58:01.175Z,1
2023-04-11T01:59:04.328Z,1
2023-04-11T02:00:04.648Z,1
2023-04-11T02:01:02.548Z,1
2023-04-11T02:02:09.513Z,1
2023-04-11T02:03:01.220Z,1
2023-04-11T02:04:03.418Z,1
2023-04-11T02:05:02.036Z,1
2023-04-11T02:06:01.135Z,1
2023-04-11T02:07:11.456Z,1
2023-04-11T02:08:01.044Z,1
2023-04-11T02:09:01.053Z,1
2023-04-11T02:10:01.054Z,1
2023-04-11T02:11:01.076Z,1
2023-04-11T02:12:13.755Z,1
2023-04-11T02:13:01.073Z,1
2023-04-11T02:14:01.211Z,1
2023-04-11T02:15:01.340Z,1
2023-04-11T02:16:01.234Z,1
2023-04-11T02:17:16.713Z,1
2023-04-11T02:18:00.629Z,1
2023-04-11T02:19:00.278Z,1
2023-04-11T02:19:59.864Z,1
2023-04-11T02:21:01.519Z,1
2023-04-11T02:22:01.119Z,1
2023-04-11T02:23:01.038Z,1
2023-04-11T02:24:01.058Z,1
2023-04-11T02:25:00.731Z,1
2023-04-11T02:26:00.457Z,1
2023-04-11T02:27:00.267Z,1
2023-04-11T02:27:59.950Z,1
2023-04-11T02:28:59.616Z,1
2023-04-11T02:30:02.052Z,1
2023-04-11T02:31:01.867Z,1
2023-04-11T02:32:01.932Z,1
2023-04-11T02:33:01.178Z,1
2023-04-11T02:34:01.262Z,1
2023-04-11T02:35:01.905Z,1
2023-04-11T02:36:02.466Z,1
2023-04-11T02:37:01.216Z,1
2023-04-11T02:38:01.065Z,1
2023-04-11T02:39:01.026Z,1
2023-04-11T02:40:01.031Z,1
2023-04-11T02:41:01.085Z,1
2023-04-11T02:42:01.062Z,1
2023-04-11T02:43:01.445Z,1
2023-04-11T02:44:03.933Z,1
2023-04-11T02:45:01.605Z,1
2023-04-11T02:46:11.628Z,1
2023-04-11T02:47:01.845Z,1
2023-04-11T02:48:01.154Z,1
2023-04-11T02:49:01.080Z,1
2023-04-11T02:50:01.101Z,1
2023-04-11T02:51:01.121Z,1
2023-04-11T02:52:01.146Z,1
2023-04-11T02:53:01.251Z,1
2023-04-11T02:54:01.152Z,1
2023-04-11T02:55:01.148Z,1
2023-04-11T02:56:01.041Z,1
2023-04-11T02:57:01.049Z,1
2023-04-11T02:58:01.051Z,1
2023-04-11T02:59:01.100Z,1
2023-04-11T03:00:01.363Z,1
2023-04-11T03:01:01.326Z,1
2023-04-11T03:02:02.168Z,1
2023-04-11T03:03:01.164Z,1
2023-04-11T03:04:02.023Z,1
2023-04-11T03:05:01.105Z,1
2023-04-11T03:06:01.131Z,1
2023-04-11T03:07:01.112Z,1
2023-04-11T03:08:01.114Z,1
2023-04-11T03:09:01.348Z,1
2023-04-11T03:10:03.995Z,1
2023-04-11T03:11:02.174Z,1
2023-04-11T03:12:01.135Z,1
2023-04-11T03:13:01.284Z,1
2023-04-11T03:14:01.049Z,1
2023-04-11T03:15:01.049Z,1
2023-04-11T03:16:01.062Z,1
2023-04-11T03:17:01.081Z,1
2023-04-11T03:18:01.543Z,1
2023-04-11T03:19:01.202Z,1
2023-04-11T03:20:01.624Z,1
2023-04-11T03:21:04.536Z,1
2023-04-11T03:22:01.155Z,1
2023-04-11T03:23:02.040Z,1
2023-04-11T03:24:01.121Z,1
2023-04-11T03:25:00.591Z,1
2023-04-11T03:26:00.168Z,1
2023-04-11T03:27:00.027Z,1
2023-04-11T03:27:59.689Z,1
2023-04-11T03:29:02.143Z,1
2023-04-11T03:30:01.059Z,1
2023-04-11T03:31:01.072Z,1
2023-04-11T03:32:01.060Z,1
2023-04-11T03:33:01.284Z,1
2023-04-11T03:34:01.131Z,1
2023-04-11T03:35:01.090Z,1
2023-04-11T03:36:01.416Z,1
2023-04-11T03:37:01.993Z,1
2023-04-11T03:38:02.619Z,1
2023-04-11T03:39:01.113Z,1
2023-04-11T03:40:01.053Z,1
2023-04-11T03:41:01.131Z,1
2023-04-11T03:42:00.820Z,1
2023-04-11T03:43:05.895Z,1
2023-04-11T03:44:01.440Z,1
2023-04-11T03:45:01.333Z,1
2023-04-11T03:46:04.096Z,1
2023-04-11T03:47:01.325Z,1
2023-04-11T03:48:09.336Z,1
2023-04-11T03:49:01.083Z,1
2023-04-11T03:50:00.980Z,1
2023-04-11T03:51:01.144Z,1
2023-04-11T03:52:00.791Z,1
2023-04-11T03:53:10.775Z,1
2023-04-11T03:54:02.173Z,1
2023-04-11T03:55:04.491Z,1
2023-04-11T03:56:01.118Z,1
2023-04-11T03:57:01.138Z,1
2023-04-11T03:58:14.081Z,1
2023-04-11T03:59:01.129Z,1
2023-04-11T04:00:01.813Z,1
2023-04-11T04:01:01.861Z,1
2023-04-11T04:02:01.534Z,1
2023-04-11T04:03:16.513Z,1
2023-04-11T04:04:02.022Z,1
2023-04-11T04:05:01.410Z,1
2023-04-11T04:06:03.117Z,1
2023-04-11T04:07:00.674Z,1
2023-04-11T04:08:00.355Z,1
2023-04-11T04:08:59.995Z,1
2023-04-11T04:09:59.935Z,1
2023-04-11T04:10:59.555Z,1
2023-04-11T04:12:01.444Z,1
2023-04-11T04:13:01.418Z,1
2023-04-11T04:14:01.119Z,1
2023-04-11T04:15:00.824Z,1
2023-04-11T04:16:03.277Z,1
2023-04-11T04:17:01.027Z,1
2023-04-11T04:18:01.052Z,1
2023-04-11T04:19:01.276Z,1
2023-04-11T04:20:01.402Z,1
2023-04-11T04:21:04.308Z,1
2023-04-11T04:22:01.190Z,1
2023-04-11T04:23:02.155Z,1
2023-04-11T04:24:01.829Z,1
2023-04-11T04:25:00.813Z,1
2023-04-11T04:26:00.594Z,1
2023-04-11T04:27:00.275Z,1
2023-04-11T04:28:00.233Z,1
2023-04-11T04:28:59.887Z,1
2023-04-11T04:30:04.282Z,1
2023-04-11T04:31:01.057Z,1
2023-04-11T04:32:01.209Z,1
2023-04-11T04:33:01.164Z,1
2023-04-11T04:34:00.840Z,1
2023-04-11T04:35:00.433Z,1
2023-04-11T04:36:00.398Z,1
2023-04-11T04:37:00.375Z,1
2023-04-11T04:38:00.046Z,1
2023-04-11T04:38:59.622Z,1
2023-04-11T04:40:01.311Z,1
2023-04-11T04:41:01.093Z,1
2023-04-11T04:42:01.106Z,1
2023-04-11T04:43:01.152Z,1
2023-04-11T04:44:01.172Z,1
2023-04-11T04:45:01.169Z,1
2023-04-11T04:46:01.345Z,1
2023-04-11T04:47:02.034Z,1
2023-04-11T04:48:02.281Z,1
2023-04-11T04:49:02.325Z,1
2023-04-11T04:50:02.585Z,1
2023-04-11T04:51:02.622Z,1
2023-04-11T04:52:05.279Z,1
2023-04-11T04:53:01.739Z,1
2023-04-11T04:54:00.977Z,1
2023-04-11T04:55:01.166Z,1
2023-04-11T04:56:01.533Z,1
2023-04-11T04:57:01.093Z,1
2023-04-11T04:58:01.101Z,1
2023-04-11T04:59:01.107Z,1
2023-04-11T05:00:01.133Z,1
2023-04-11T05:01:01.522Z,1
2023-04-11T05:02:04.416Z,1
2023-04-11T05:03:01.363Z,1
2023-04-11T05:04:01.709Z,1
2023-04-11T05:05:01.077Z,1
2023-04-11T05:06:01.048Z,1
2023-04-11T05:07:01.050Z,1
2023-04-11T05:08:01.198Z,1
2023-04-11T05:09:01.038Z,1
2023-04-11T05:10:01.074Z,1
2023-04-11T05:11:01.072Z,1
2023-04-11T05:12:01.088Z,1
2023-04-11T05:13:01.089Z,1
2023-04-11T05:14:00.880Z,1
2023-04-11T05:15:01.515Z,1
2023-04-11T05:16:01.215Z,1
2023-04-11T05:17:01.244Z,1
2023-04-11T05:18:01.237Z,1
2023-04-11T05:19:03.597Z,1
2023-04-11T05:20:02.578Z,1
2023-04-11T05:21:01.332Z,1
2023-04-11T05:22:01.041Z,1
2023-04-11T05:23:01.231Z,1
2023-04-11T05:24:06.797Z,1
2023-04-11T05:25:01.878Z,1
2023-04-11T05:26:01.060Z,1
2023-04-11T05:27:01.090Z,1
2023-04-11T05:28:01.075Z,1
2023-04-11T05:29:09.360Z,1
2023-04-11T05:30:01.791Z,1
2023-04-11T05:31:02.203Z,1
2023-04-11T05:32:01.411Z,1
2023-04-11T05:33:01.507Z,1
2023-04-11T05:34:11.168Z,1
2023-04-11T05:35:02.142Z,1
2023-04-11T05:36:01.268Z,1
2023-04-11T05:37:01.038Z,1
2023-04-11T05:38:01.037Z,1
2023-04-11T05:39:14.724Z,1
2023-04-11T05:40:01.070Z,1
2023-04-11T05:41:01.073Z,1
2023-04-11T05:42:01.073Z,1
2023-04-11T05:43:01.075Z,1
2023-04-11T05:44:15.979Z,1
2023-04-11T05:45:01.136Z,1
2023-04-11T05:46:01.144Z,1
2023-04-11T05:47:01.038Z,1
2023-04-11T05:48:01.200Z,1
2023-04-11T05:49:01.026Z,1
2023-04-11T05:50:00.705Z,1
2023-04-11T05:51:00.409Z,1
2023-04-11T05:52:00.005Z,1
2023-04-11T05:52:59.598Z,1
2023-04-11T05:54:01.287Z,1
2023-04-11T05:55:01.954Z,1
2023-04-11T05:56:02.046Z,1
2023-04-11T05:57:01.059Z,1
2023-04-11T05:58:01.061Z,1
2023-04-11T05:59:01.090Z,1
2023-04-11T06:00:01.547Z,1
2023-04-11T06:01:01.524Z,1
2023-04-11T06:02:00.509Z,1
2023-04-11T06:03:00.422Z,1
2023-04-11T06:04:01.912Z,1
2023-04-11T06:05:02.462Z,1
2023-04-11T06:06:01.691Z,1
2023-04-11T06:07:01.154Z,1
2023-04-11T06:08:01.156Z,1
2023-04-11T06:09:01.341Z,1
2023-04-11T06:10:01.444Z,1
2023-04-11T06:11:01.173Z,1
2023-04-11T06:12:02.340Z,1
2023-04-11T06:13:02.212Z,1
2023-04-11T06:14:00.637Z,1
2023-04-11T06:15:00.162Z,1
2023-04-11T06:15:59.781Z,1
2023-04-11T06:17:01.504Z,1
2023-04-11T06:18:01.980Z,1
2023-04-11T06:19:01.307Z,1
2023-04-11T06:20:00.705Z,1
2023-04-11T06:21:00.399Z,1
2023-04-11T06:21:59.997Z,1
2023-04-11T06:22:59.600Z,1
2023-04-11T06:24:01.184Z,1
2023-04-11T06:25:01.866Z,1
2023-04-11T06:26:02.070Z,1
2023-04-11T06:27:01.568Z,1
2023-04-11T06:28:01.081Z,1
2023-04-11T06:29:01.293Z,1
2023-04-11T06:30:02.377Z,1
2023-04-11T06:31:01.066Z,1
2023-04-11T06:32:01.860Z,1
2023-04-11T06:33:01.807Z,1.1
2023-04-11T06:34:01.578Z,1.4
2023-04-11T06:35:01.060Z,2.6
2023-04-11T06:36:01.047Z,3
2023-04-11T06:37:01.021Z,3
2023-04-11T06:38:01.054Z,2.8
2023-04-11T06:39:01.029Z,2.9
2023-04-11T06:40:01.425Z,3.4
2023-04-11T06:41:01.021Z,3.5
2023-04-11T06:42:01.017Z,4.7
2023-04-11T06:43:01.027Z,5.1
2023-04-11T06:44:01.087Z,5.2
2023-04-11T06:45:00.908Z,5.7
2023-04-11T06:46:01.086Z,5.9
2023-04-11T06:47:01.196Z,6.3
2023-04-11T06:48:01.247Z,6.6
2023-04-11T06:49:01.367Z,7
2023-04-11T06:50:01.110Z,7.1
2023-04-11T06:51:01.039Z,7.5
2023-04-11T06:52:01.098Z,7.7
2023-04-11T06:53:01.143Z,7.9
2023-04-11T06:54:01.119Z,7.9
2023-04-11T06:55:01.139Z,8.3
2023-04-11T06:56:01.241Z,8.6
2023-04-11T06:57:01.257Z,8.6
2023-04-11T06:58:02.121Z,8.8
2023-04-11T06:59:04.025Z,8.7
2023-04-11T07:00:01.062Z,8.7
2023-04-11T07:01:01.064Z,9.9
2023-04-11T07:02:01.166Z,9.7
2023-04-11T07:03:01.267Z,9.6
2023-04-11T07:04:02.254Z,9.8
2023-04-11T07:05:01.127Z,10.1
2023-04-11T07:06:01.475Z,10.2
2023-04-11T07:07:01.481Z,10.1
2023-04-11T07:08:01.131Z,10.5
2023-04-11T07:09:01.219Z,11.2
2023-04-11T07:10:04.507Z,11.3
2023-04-11T07:11:01.933Z,11.7
2023-04-11T07:12:02.616Z,12.3
2023-04-11T07:13:01.415Z,12.8
2023-04-11T07:14:02.505Z,13.2
2023-04-11T07:15:07.819Z,13.2
2023-04-11T07:16:01.125Z,13.1
2023-04-11T07:17:01.053Z,13.1
2023-04-11T07:18:01.085Z,13.1
2023-04-11T07:19:01.074Z,13.4
2023-04-11T07:20:10.377Z,13.4
2023-04-11T07:21:01.529Z,13.5
2023-04-11T07:22:02.105Z,13.7
2023-04-11T07:23:01.267Z,13.7
2023-04-11T07:24:01.133Z,13.7
2023-04-11T07:25:12.820Z,13.7
2023-04-11T07:26:01.024Z,13.7
2023-04-11T07:27:01.210Z,13.8
2023-04-11T07:28:01.136Z,14.4
2023-04-11T07:29:01.035Z,14.4
2023-04-11T07:30:14.677Z,14.9
2023-04-11T07:31:01.069Z,14.9
2023-04-11T07:32:01.111Z,14.7
2023-04-11T07:33:01.137Z,15.1
2023-04-11T07:34:01.779Z,15.4
2023-04-11T07:35:16.209Z,15.2
2023-04-11T07:36:01.490Z,15.6
2023-04-11T07:37:01.327Z,15.9
2023-04-11T07:38:02.278Z,16.2
2023-04-11T07:39:02.908Z,16.4
2023-04-11T07:40:01.116Z,16.6
2023-04-11T07:41:01.122Z,17
2023-04-11T07:42:01.109Z,17.3
2023-04-11T07:43:01.035Z,17.8
2023-04-11T07:44:01.278Z,18.1
2023-04-11T07:45:01.331Z,18.6
2023-04-11T07:46:02.227Z,18.7
2023-04-11T07:47:01.056Z,18.7
2023-04-11T07:48:01.303Z,18.7
2023-04-11T07:49:01.072Z,18.9
2023-04-11T07:50:01.055Z,19.2
2023-04-11T07:51:01.108Z,19.3
2023-04-11T07:52:01.259Z,19.4
2023-04-11T07:53:01.474Z,19.7
2023-04-11T07:54:01.141Z,19.6
2023-04-11T07:55:01.089Z,20
2023-04-11T07:56:01.363Z,19.7
2023-04-11T07:57:01.458Z,19.9
2023-04-11T07:58:01.108Z,20.1
2023-04-11T07:59:01.135Z,20.2
2023-04-11T08:00:01.125Z,20
2023-04-11T08:01:01.251Z,20.3
2023-04-11T08:02:01.237Z,20.4
2023-04-11T08:03:02.533Z,20.6
2023-04-11T08:04:03.630Z,20.8
2023-04-11T08:05:02.056Z,21
2023-04-11T08:06:01.051Z,21.1
2023-04-11T08:07:01.092Z,21
2023-04-11T08:08:01.125Z,20.8
2023-04-11T08:09:01.473Z,20.8
2023-04-11T08:10:01.100Z,20.8
2023-04-11T08:11:01.089Z,21.1
2023-04-11T08:12:01.269Z,21
2023-04-11T08:13:01.113Z,21.3
2023-04-11T08:14:00.809Z,21.2
2023-04-11T08:15:01.111Z,21.3
2023-04-11T08:16:01.306Z,21.7
2023-04-11T08:17:01.721Z,21.8
2023-04-11T08:18:01.069Z,21.8
2023-04-11T08:19:01.035Z,21.9
2023-04-11T08:20:02.235Z,22.4
2023-04-11T08:21:01.032Z,22.3
2023-04-11T08:22:01.080Z,22.2
2023-04-11T08:23:01.070Z,22.4
2023-04-11T08:24:01.142Z,22.4
2023-04-11T08:25:01.287Z,22.4
2023-04-11T08:26:01.088Z,22.5
2023-04-11T08:27:01.088Z,22.4
2023-04-11T08:28:01.120Z,22.5
2023-04-11T08:29:01.042Z,22.5
2023-04-11T08:30:01.131Z,22.8
2023-04-11T08:31:01.180Z,22.8
2023-04-11T08:32:01.129Z,23.8
2023-04-11T08:33:01.203Z,23.5
2023-04-11T08:34:02.175Z,23.4
2023-04-11T08:35:01.398Z,23.8
2023-04-11T08:36:01.076Z,23.8
2023-04-11T08:37:01.071Z,24.7
2023-04-11T08:38:01.058Z,24.8
2023-04-11T08:39:01.085Z,24.8
2023-04-11T08:40:01.088Z,24.9
2023-04-11T08:41:01.074Z,25.3
2023-04-11T08:42:01.088Z,25.7
2023-04-11T08:43:01.114Z,25.7
2023-04-11T08:44:01.495Z,25.8
2023-04-11T08:45:01.234Z,26.4
2023-04-11T08:46:01.943Z,27
2023-04-11T08:47:01.112Z,26.9
2023-04-11T08:48:01.437Z,27.1
2023-04-11T08:49:01.030Z,27.1
2023-04-11T08:50:01.172Z,26.9
2023-04-11T08:51:01.112Z,26.6
2023-04-11T08:52:01.142Z,27.1
2023-04-11T08:53:01.442Z,27.5
2023-04-11T08:54:00.844Z,27.5
2023-04-11T08:55:00.471Z,27.6
2023-04-11T08:56:03.456Z,27.5
2023-04-11T08:57:01.888Z,27.3
2023-04-11T08:58:01.100Z,27.2
2023-04-11T08:59:01.345Z,27
2023-04-11T09:00:01.373Z,27.3
2023-04-11T09:01:07.472Z,27.2
2023-04-11T09:02:02.201Z,27.1
2023-04-11T09:03:01.337Z,27.3
2023-04-11T09:04:02.027Z,27.3
2023-04-11T09:05:01.211Z,27.3
2023-04-11T09:06:10.653Z,27.4
2023-04-11T09:07:01.527Z,27.1
2023-04-11T09:08:01.196Z,27
2023-04-11T09:09:01.080Z,26.8
2023-04-11T09:10:01.203Z,25.7
2023-04-11T09:11:13.957Z,25.5
2023-04-11T09:12:01.080Z,25.7
2023-04-11T09:13:01.095Z,25.7
2023-04-11T09:14:00.784Z,25.8
2023-04-11T09:15:00.494Z,25.8
2023-04-11T09:16:15.665Z,25.8
2023-04-11T09:17:01.113Z,26.4
2023-04-11T09:18:01.405Z,26.5
2023-04-11T09:19:01.132Z,26.5
2023-04-11T09:20:01.118Z,26.5
2023-04-11T09:21:01.154Z,26.3
2023-04-11T09:22:01.064Z,26.5
2023-04-11T09:23:01.077Z,26.4
2023-04-11T09:24:01.067Z,26.8
2023-04-11T09:25:01.515Z,27.1
2023-04-11T09:26:01.441Z,27.3
2023-04-11T09:27:01.080Z,27.3
2023-04-11T09:28:01.095Z,27.8
2023-04-11T09:29:01.085Z,27.7
2023-04-11T09:30:01.122Z,27.6
2023-04-11T09:31:01.142Z,27.6
2023-04-11T09:32:01.122Z,27.8
2023-04-11T09:33:01.157Z,28
2023-04-11T09:34:01.517Z,28
2023-04-11T09:35:01.605Z,28.1
2023-04-11T09:36:01.865Z,28.2
2023-04-11T09:37:01.139Z,28.9
2023-04-11T09:38:01.048Z,29.1
2023-04-11T09:39:01.043Z,29.5
2023-04-11T09:40:01.062Z,29.5
2023-04-11T09:41:00.808Z,29.4
2023-04-11T09:42:00.439Z,29.2
2023-04-11T09:43:00.100Z,29.1
2023-04-11T09:43:59.735Z,29.2
2023-04-11T09:45:02.210Z,29.9
2023-04-11T09:46:01.177Z,29.4
2023-04-11T09:47:01.228Z,29.2
2023-04-11T09:48:01.142Z,29.2
2023-04-11T09:49:01.372Z,29.5
2023-04-11T09:50:01.026Z,29.6
2023-04-11T09:51:01.025Z,29.8
2023-04-11T09:52:01.305Z,29.9
2023-04-11T09:53:01.057Z,30
2023-04-11T09:54:00.976Z,29.9
2023-04-11T09:55:00.717Z,29.9
2023-04-11T09:56:05.342Z,31.3
2023-04-11T09:57:01.552Z,31.9
2023-04-11T09:58:01.740Z,31.7
2023-04-11T09:59:01.779Z,31.1
2023-04-11T10:00:01.310Z,30.5
2023-04-11T10:01:02.114Z,30.1
2023-04-11T10:02:01.564Z,30.4
2023-04-11T10:03:01.573Z,30.1
2023-04-11T10:04:01.694Z,30.3
2023-04-11T10:05:01.507Z,30.5
2023-04-11T10:06:01.311Z,29.9
2023-04-11T10:07:01.941Z,30.1
2023-04-11T10:08:01.038Z,30.8
2023-04-11T10:09:00.618Z,30.5
2023-04-11T10:10:00.310Z,29.9
2023-04-11T10:11:00.139Z,29.4
2023-04-11T10:11:59.912Z,29.4
2023-04-11T10:12:59.606Z,29
2023-04-11T10:14:01.478Z,28.4
2023-04-11T10:15:01.605Z,28.4
2023-04-11T10:16:01.069Z,28
2023-04-11T10:17:01.111Z,27.9
2023-04-11T10:18:01.171Z,26.3
2023-04-11T10:19:01.957Z,25.7
2023-04-11T10:20:02.115Z,25.9
2023-04-11T10:21:01.133Z,25.7
2023-04-11T10:22:01.912Z,24.9
2023-04-11T10:23:01.503Z,22.9
2023-04-11T10:24:01.162Z,21.8
2023-04-11T10:25:01.176Z,21.2
2023-04-11T10:26:01.028Z,21.4
2023-04-11T10:27:01.078Z,20.1
2023-04-11T10:28:01.410Z,20
2023-04-11T10:29:01.441Z,19.8
2023-04-11T10:30:01.166Z,19.2
2023-04-11T10:31:01.272Z,18.9
2023-04-11T10:32:01.114Z,19
2023-04-11T10:33:01.163Z,20
2023-04-11T10:34:01.101Z,18.9
2023-04-11T10:35:01.468Z,18.6
2023-04-11T10:36:01.413Z,18.6
2023-04-11T10:37:01.286Z,18.1
2023-04-11T10:37:59.957Z,17.3
2023-04-11T10:38:59.577Z,16.9
2023-04-11T10:40:01.176Z,17.4
2023-04-11T10:41:01.124Z,17.1
2023-04-11T10:42:03.467Z,17.7
2023-04-11T10:43:01.022Z,16.5
2023-04-11T10:44:01.216Z,16.8
2023-04-11T10:45:01.060Z,16.9
2023-04-11T10:46:01.099Z,16.6
2023-04-11T10:47:06.620Z,16
2023-04-11T10:48:01.173Z,16.1
2023-04-11T10:49:02.303Z,16
2023-04-11T10:50:01.082Z,15.9
2023-04-11T10:51:01.162Z,16.3
2023-04-11T10:52:10.097Z,16.6
2023-04-11T10:53:01.162Z,17.3
2023-04-11T10:54:02.147Z,16.5
2023-04-11T10:55:00.800Z,15.8
2023-04-11T10:56:00.405Z,15.5
2023-04-11T10:57:13.449Z,15.7
2023-04-11T10:58:01.775Z,16
2023-04-11T10:59:01.045Z,16.1
2023-04-11T11:00:01.060Z,15.9
2023-04-11T11:01:01.074Z,16.2
2023-04-11T11:02:16.482Z,16.7
2023-04-11T11:03:01.583Z,17.8
2023-04-11T11:04:01.589Z,17.4
2023-04-11T11:05:01.318Z,17.3
2023-04-11T11:06:02.314Z,16.6
2023-04-11T11:07:01.093Z,16.4
2023-04-11T11:08:01.104Z,17.1
2023-04-11T11:09:01.148Z,16.9
2023-04-11T11:10:01.199Z,17.1
2023-04-11T11:11:01.121Z,16.2
2023-04-11T11:12:01.111Z,16.1
2023-04-11T11:13:01.149Z,14.5
2023-04-11T11:14:01.418Z,14.4
2023-04-11T11:15:00.823Z,13.6
2023-04-11T11:16:01.046Z,14.6
2023-04-11T11:17:01.266Z,14.2
2023-04-11T11:18:01.124Z,15
2023-04-11T11:19:01.777Z,14.4
2023-04-11T11:20:01.062Z,14.2
2023-04-11T11:21:01.027Z,14.9
2023-04-11T11:22:01.179Z,15
2023-04-11T11:23:01.474Z,13.2
2023-04-11T11:24:01.476Z,13.6
2023-04-11T11:25:01.104Z,14.1
2023-04-11T11:26:01.113Z,15.1
2023-04-11T11:27:01.143Z,16.3
2023-04-11T11:28:01.140Z,15.2
2023-04-11T11:29:01.157Z,14.7
2023-04-11T11:30:01.073Z,15.2
2023-04-11T11:31:01.073Z,15.2
2023-04-11T11:32:01.087Z,15.8
2023-04-11T11:33:01.524Z,14.2
2023-04-11T11:34:18.333Z,13.6
2023-04-11T11:35:01.265Z,12.6
2023-04-11T11:36:01.968Z,10.3
2023-04-11T11:37:01.132Z,9.3
2023-04-11T11:38:01.756Z,9.6
2023-04-11T11:39:01.091Z,8.6
2023-04-11T11:40:01.098Z,9.1
2023-04-11T11:41:01.022Z,9.1
2023-04-11T11:42:01.423Z,9.3
2023-04-11T11:43:01.514Z,9.1
2023-04-11T11:44:02.019Z,9.1
2023-04-11T11:45:01.116Z,9.7
2023-04-11T11:46:01.151Z,9.1
2023-04-11T11:47:01.985Z,9.1
2023-04-11T11:48:01.069Z,9.4
2023-04-11T11:49:01.329Z,9.1
2023-04-11T11:50:01.065Z,9.1
2023-04-11T11:51:01.052Z,9.7
2023-04-11T11:52:01.114Z,9.7
2023-04-11T11:53:01.449Z,9.6
2023-04-11T11:54:02.186Z,8
2023-04-11T11:55:01.124Z,7.2
2023-04-11T11:56:01.124Z,5.5
2023-04-11T11:57:02.628Z,4.2
2023-04-11T11:58:02.710Z,2.4
2023-04-11T11:59:01.341Z,2
2023-04-11T12:00:02.491Z,1
2023-04-11T12:01:02.143Z,1
2023-04-11T12:02:01.068Z,1.1
2023-04-11T12:03:01.197Z,2
2023-04-11T12:04:01.619Z,1.8
2023-04-11T12:05:02.118Z,2.6
2023-04-11T12:06:01.147Z,4.3
2023-04-11T12:07:01.482Z,4.9
2023-04-11T12:08:01.109Z,5.2
2023-04-11T12:09:01.417Z,6.2
2023-04-11T12:10:01.411Z,5.9
2023-04-11T12:11:01.032Z,5.9
2023-04-11T12:12:01.011Z,5.6
2023-04-11T12:13:01.031Z,6.5
2023-04-11T12:14:01.147Z,6.4
2023-04-11T12:15:00.825Z,6.8
2023-04-11T12:16:01.179Z,6.7
2023-04-11T12:17:01.934Z,5.8
2023-04-11T12:18:01.622Z,6.1
2023-04-11T12:19:01.184Z,6.8
2023-04-11T12:20:00.845Z,6
2023-04-11T12:21:00.538Z,6
2023-04-11T12:22:00.266Z,6.1
2023-04-11T12:22:59.926Z,6.4
2023-04-11T12:23:59.632Z,6.2
2023-04-11T12:25:01.256Z,6.7
2023-04-11T12:26:01.384Z,5.6
2023-04-11T12:27:06.916Z,6.1
2023-04-11T12:28:02.027Z,6.1
2023-04-11T12:29:01.125Z,7.2
2023-04-11T12:30:01.123Z,7.3
2023-04-11T12:31:01.155Z,6.8
2023-04-11T12:32:01.136Z,7.8
2023-04-11T12:33:04.729Z,6.3
2023-04-11T12:34:01.179Z,4.7
2023-04-11T12:35:00.933Z,4.7
2023-04-11T12:36:01.052Z,5.6
2023-04-11T12:37:01.440Z,4.6
2023-04-11T12:38:07.601Z,4.5
2023-04-11T12:39:01.037Z,6.2
2023-04-11T12:40:01.079Z,7.8
2023-04-11T12:41:26.372Z,7.4
2023-04-11T12:42:02.624Z,6.8
2023-04-11T12:43:10.486Z,6.1
2023-04-11T12:44:01.798Z,7.4
2023-04-11T12:45:02.545Z,7.6
2023-04-11T12:46:01.487Z,7.7
2023-04-11T12:47:01.202Z,8
2023-04-11T12:48:13.466Z,7.4
2023-04-11T12:49:02.075Z,4.6
2023-04-11T12:50:01.076Z,4.2
2023-04-11T12:51:01.038Z,3.5
2023-04-11T12:52:01.723Z,1
2023-04-11T12:53:15.517Z,1
2023-04-11T12:54:01.252Z,1
2023-04-11T12:55:01.687Z,1
2023-04-11T12:56:02.209Z,1
2023-04-11T12:57:01.085Z,1
2023-04-11T12:58:01.091Z,1
2023-04-11T12:59:01.127Z,1
2023-04-11T13:00:01.078Z,1
2023-04-11T13:01:01.106Z,1
2023-04-11T13:02:01.420Z,1
2023-04-11T13:03:01.292Z,1
2023-04-11T13:04:02.205Z,1
2023-04-11T13:05:04.339Z,1
2023-04-11T13:06:02.961Z,1
2023-04-11T13:07:01.751Z,1
2023-04-11T13:08:01.034Z,1
2023-04-11T13:09:01.054Z,1
2023-04-11T13:10:01.348Z,1
2023-04-11T13:11:01.060Z,1
2023-04-11T13:12:01.113Z,1
2023-04-11T13:13:11.881Z,1
2023-04-11T13:14:04.120Z,1
2023-04-11T13:15:01.975Z,1
2023-04-11T13:16:01.104Z,1
2023-04-11T13:17:01.113Z,1
2023-04-11T13:18:01.173Z,1
2023-04-11T13:19:01.124Z,1
2023-04-11T13:20:01.126Z,1
2023-04-11T13:21:01.157Z,1
2023-04-11T13:22:01.041Z,1
2023-04-11T13:23:01.058Z,1
2023-04-11T13:24:01.295Z,1
2023-04-11T13:25:01.420Z,1
2023-04-11T13:26:01.163Z,1
2023-04-11T13:27:01.064Z,1
2023-04-11T13:28:01.056Z,1
2023-04-11T13:29:01.080Z,1
2023-04-11T13:30:01.109Z,1
2023-04-11T13:31:01.910Z,1
2023-04-11T13:32:01.136Z,1
2023-04-11T13:33:01.964Z,1
2023-04-11T13:34:02.235Z,1
2023-04-11T13:35:00.724Z,1
2023-04-11T13:36:00.401Z,1
2023-04-11T13:37:00.259Z,1
2023-04-11T13:37:59.895Z,1
2023-04-11T13:38:59.640Z,1
2023-04-11T13:40:01.767Z,1
2023-04-11T13:41:01.750Z,1
2023-04-11T13:42:01.084Z,1
2023-04-11T13:43:01.117Z,1
2023-04-11T13:44:01.426Z,1
2023-04-11T13:45:01.073Z,1
2023-04-11T13:46:01.128Z,1
2023-04-11T13:47:01.122Z,1
2023-04-11T13:48:01.105Z,1
2023-04-11T13:49:01.099Z,1
2023-04-11T13:50:01.109Z,1
2023-04-11T13:51:01.118Z,1
2023-04-11T13:52:01.152Z,1
2023-04-11T13:53:01.278Z,1
2023-04-11T13:54:01.144Z,1
2023-04-11T13:55:00.838Z,1
2023-04-11T13:56:00.479Z,1
2023-04-11T13:57:00.357Z,1
2023-04-11T13:57:59.955Z,1
2023-04-11T13:58:59.640Z,1
2023-04-11T14:00:01.817Z,1
2023-04-11T14:01:01.661Z,1
2023-04-11T14:02:02.165Z,1
2023-04-11T14:03:02.275Z,1
2023-04-11T14:04:01.568Z,1
2023-04-11T14:05:02.013Z,1
2023-04-11T14:06:01.136Z,1
2023-04-11T14:07:01.032Z,1
2023-04-11T14:08:01.133Z,1
2023-04-11T14:09:01.150Z,1
2023-04-11T14:10:01.260Z,1
2023-04-11T14:11:02.045Z,1